createdAt,value
2022-08-04T00:02:14.121Z,5.22
2022-08-04T00:04:47.291Z,6.13
2022-08-04T00:07:44.183Z,5.43
2022-08-04T00:10:11.909Z,6.90
2022-08-04T00:12:54.934Z,5.57
2022-08-04T00:15:23.362Z,6.20
2022-08-04T00:17:54.898Z,4.10
2022-08-04T00:20:23.353Z,4.72
2022-08-04T00:22:53.946Z,4.63
2022-08-04T00:25:22.488Z,5.20
2022-08-04T00:27:50.919Z,5.32
2022-08-04T00:30:19.019Z,5.28
2022-08-04T00:32:47.423Z,4.70
2022-08-04T00:35:16.520Z,5.88
2022-08-04T00:37:45.953Z,4.50
2022-08-04T00:40:26.848Z,4.57
2022-08-04T00:43:08.213Z,4.45
2022-08-04T00:46:15.017Z,6.47
2022-08-04T00:48:57.242Z,5.40
2022-08-04T00:51:31.996Z,8.60
2022-08-04T00:54:09.408Z,8.52
2022-08-04T00:56:57.231Z,6.50
2022-08-04T00:59:34.442Z,7.53
2022-08-04T01:02:08.246Z,6.95
2022-08-04T01:04:50.008Z,5.10
2022-08-04T01:07:36.126Z,3.60
2022-08-04T01:10:07.875Z,5.75
2022-08-04T01:12:53.416Z,7.03
2022-08-04T01:15:26.407Z,6.22
2022-08-04T01:18:06.399Z,6.38
2022-08-04T01:20:36.312Z,5.40
2022-08-04T01:23:30.049Z,7.15
2022-08-04T01:26:43.610Z,3.90
2022-08-04T01:29:12.422Z,3.70
2022-08-04T01:32:03.759Z,3.83
2022-08-04T01:34:36.296Z,5.70
2022-08-04T01:37:10.304Z,3.58
2022-08-04T01:39:46.365Z,6.05
2022-08-04T01:42:32.010Z,4.63
2022-08-04T01:45:02.723Z,7.38
2022-08-04T01:47:31.898Z,4.15
2022-08-04T01:50:06.342Z,5.35
2022-08-04T01:52:36.235Z,3.30
2022-08-04T01:55:07.242Z,5.15
2022-08-04T01:57:38.270Z,3.50
2022-08-04T02:00:10.400Z,5.13
2022-08-04T02:02:38.573Z,5.05
2022-08-04T02:05:07.119Z,7.55
2022-08-04T02:07:44.328Z,7.72
2022-08-04T02:10:24.505Z,3.15
2022-08-04T02:12:59.274Z,4.32
2022-08-04T02:15:32.045Z,4.22
2022-08-04T02:18:05.184Z,2.67
2022-08-04T02:20:36.576Z,3.97
2022-08-04T02:23:11.310Z,3.92
2022-08-04T02:25:42.375Z,4.05
2022-08-04T02:28:19.342Z,5.72
2022-08-04T02:30:56.308Z,4.53
2022-08-04T02:33:28.312Z,3.90
2022-08-04T02:36:02.357Z,3.00
2022-08-04T02:38:42.260Z,2.88
2022-08-04T02:41:10.857Z,2.67
2022-08-04T02:43:51.619Z,3.90
2022-08-04T02:46:23.098Z,3.17
2022-08-04T02:48:53.102Z,3.20
2022-08-04T02:51:24.307Z,6.88
2022-08-04T02:53:55.713Z,4.53
2022-08-04T02:56:25.181Z,2.50
2022-08-04T02:58:54.883Z,4.27
2022-08-04T03:01:25.152Z,2.73
2022-08-04T03:04:00.264Z,5.43
2022-08-04T03:07:00.588Z,2.95
2022-08-04T03:10:01.499Z,3.53
2022-08-04T03:13:04.342Z,4.35
2022-08-04T03:16:09.398Z,4.10
2022-08-04T03:19:18.857Z,5.43
2022-08-04T03:22:20.097Z,2.30
2022-08-04T03:25:25.135Z,2.90
2022-08-04T03:28:28.756Z,3.00
2022-08-04T03:31:37.135Z,2.67
2022-08-04T03:34:16.740Z,3.35
2022-08-04T03:37:11.839Z,3.13
2022-08-04T03:40:18.978Z,2.73
2022-08-04T03:43:58.807Z,3.78
2022-08-04T03:46:48.410Z,4.47
2022-08-04T03:49:43.898Z,4.63
2022-08-04T03:52:47.225Z,3.73
2022-08-04T03:55:51.569Z,3.07
2022-08-04T03:58:54.941Z,3.30
2022-08-04T04:02:01.291Z,2.43
2022-08-04T04:05:01.192Z,3.50
2022-08-04T04:08:19.051Z,2.87
2022-08-04T04:11:29.404Z,3.13
2022-08-04T04:14:13.037Z,2.37
2022-08-04T04:16:55.427Z,3.50
2022-08-04T04:19:58.676Z,3.43
2022-08-04T04:22:47.879Z,3.37
2022-08-04T04:25:30.486Z,2.77
2022-08-04T04:28:44.599Z,4.22
2022-08-04T04:31:28.366Z,3.97
2022-08-04T04:34:03.153Z,1.83
2022-08-04T04:36:41.576Z,2.43
2022-08-04T04:39:15.925Z,4.37
2022-08-04T04:41:55.123Z,3.17
2022-08-04T04:44:57.058Z,3.90
2022-08-04T04:48:03.537Z,3.83
2022-08-04T04:50:30.081Z,1.90
2022-08-04T04:53:11.250Z,5.93
2022-08-04T04:55:48.112Z,1.67
2022-08-04T04:58:18.807Z,2.67
2022-08-04T05:00:59.096Z,3.57
2022-08-04T05:03:50.380Z,3.07
2022-08-04T05:06:28.211Z,1.80
2022-08-04T05:09:09.212Z,2.53
2022-08-04T05:12:02.395Z,2.53
2022-08-04T05:14:41.004Z,2.00
2022-08-04T05:17:17.102Z,3.00
2022-08-04T05:19:53.550Z,4.93
2022-08-04T05:22:25.778Z,1.70
2022-08-04T05:25:00.450Z,2.90
2022-08-04T05:27:32.940Z,3.40
2022-08-04T05:30:06.110Z,4.57
2022-08-04T05:32:42.781Z,1.90
2022-08-04T05:35:16.808Z,2.10
2022-08-04T05:38:07.658Z,2.47
2022-08-04T05:40:39.769Z,2.07
2022-08-04T05:43:08.356Z,2.60
2022-08-04T05:45:38.995Z,1.90
2022-08-04T05:48:09.707Z,2.23
2022-08-04T05:50:38.113Z,2.40
2022-08-04T05:53:07.291Z,2.43
2022-08-04T05:55:58.382Z,3.60
2022-08-04T05:58:25.135Z,1.93
2022-08-04T06:00:54.168Z,2.47
2022-08-04T06:03:22.917Z,5.90
2022-08-04T06:05:51.737Z,2.90
2022-08-04T06:08:19.953Z,4.95
2022-08-04T06:10:49.729Z,3.50
2022-08-04T06:13:47.602Z,5.00
2022-08-04T06:16:29.075Z,1.77
2022-08-04T06:20:02.307Z,8.18
2022-08-04T06:21:51.875Z,4.60
2022-08-04T06:24:22.170Z,3.88
2022-08-04T06:26:52.055Z,4.63
2022-08-04T06:29:25.543Z,3.78
2022-08-04T06:32:27.157Z,5.80
2022-08-04T06:34:48.023Z,2.38
2022-08-04T06:37:41.222Z,3.08
2022-08-04T06:40:29.822Z,4.97
2022-08-04T06:42:57.520Z,5.32
2022-08-04T06:45:26.437Z,2.85
2022-08-04T06:47:55.036Z,3.08
2022-08-04T06:51:25.335Z,4.95
2022-08-04T06:53:12.102Z,5.07
2022-08-04T06:55:42.465Z,4.75
2022-08-04T06:58:12.503Z,5.13
2022-08-04T07:00:42.204Z,6.65
2022-08-04T07:03:12.477Z,8.25
2022-08-04T07:05:41.707Z,6.43
2022-08-04T07:08:11.848Z,5.38
2022-08-04T07:10:40.633Z,4.43
2022-08-04T07:13:09.604Z,5.43
2022-08-04T07:15:41.131Z,6.40
2022-08-04T07:18:09.222Z,5.15
2022-08-04T07:20:37.324Z,4.70
2022-08-04T07:23:05.734Z,6.90
2022-08-04T07:25:59.651Z,6.93
2022-08-04T07:28:25.248Z,6.47
2022-08-04T07:30:55.547Z,4.85
2022-08-04T07:33:27.631Z,7.93
2022-08-04T07:36:04.975Z,6.10
2022-08-04T07:38:48.816Z,6.13
2022-08-04T07:41:40.633Z,9.88
2022-08-04T07:44:09.789Z,5.05
2022-08-04T07:46:39.285Z,3.97
2022-08-04T07:49:07.633Z,3.80
2022-08-04T07:51:37.314Z,4.43
2022-08-04T07:54:07.723Z,4.65
2022-08-04T07:56:37.455Z,2.42
2022-08-04T07:59:06.293Z,2.35
2022-08-04T08:01:34.604Z,5.20
2022-08-04T08:04:06.792Z,3.60
2022-08-04T08:06:42.732Z,4.97
2022-08-04T08:09:14.522Z,4.25
2022-08-04T08:12:37.957Z,4.53
2022-08-04T08:14:31.910Z,2.70
2022-08-04T08:17:01.628Z,4.28
2022-08-04T08:19:31.230Z,2.88
2022-08-04T08:22:00.894Z,3.25
2022-08-04T08:24:29.930Z,4.53
2022-08-04T08:26:58.274Z,5.53
2022-08-04T08:29:27.440Z,3.85
2022-08-04T08:32:01.504Z,8.82
2022-08-04T08:34:32.668Z,6.85
2022-08-04T08:37:06.376Z,4.25
2022-08-04T08:39:39.618Z,6.45
2022-08-04T08:42:48.928Z,2.70
2022-08-04T08:45:31.430Z,2.40
2022-08-04T08:48:17.867Z,3.50
2022-08-04T08:51:24.986Z,5.43
2022-08-04T08:54:00.998Z,3.38
2022-08-04T08:56:35.298Z,3.65
2022-08-04T08:59:27.015Z,4.00
2022-08-04T09:02:16.182Z,5.70
2022-08-04T09:05:07.672Z,3.88
2022-08-04T09:08:03.412Z,3.97
2022-08-04T09:10:37.756Z,2.47
2022-08-04T09:13:12.277Z,9.38
2022-08-04T09:15:54.372Z,2.05
2022-08-04T09:18:27.316Z,4.20
2022-08-04T09:21:00.714Z,6.80
2022-08-04T09:23:45.257Z,6.15
2022-08-04T09:26:20.543Z,2.22
2022-08-04T09:28:55.146Z,1.85
2022-08-04T09:31:26.213Z,7.57
2022-08-04T09:34:01.647Z,3.15
2022-08-04T09:36:34.992Z,5.78
2022-08-04T09:39:13.484Z,4.15
2022-08-04T09:41:52.550Z,4.20
2022-08-04T09:44:48.776Z,2.47
2022-08-04T09:47:22.099Z,2.13
2022-08-04T09:49:57.008Z,3.38
2022-08-04T09:52:29.982Z,1.92
2022-08-04T09:55:07.040Z,3.28
2022-08-04T09:57:46.498Z,3.67
2022-08-04T10:00:17.190Z,3.03
2022-08-04T10:02:49.640Z,3.22
2022-08-04T10:05:21.910Z,2.15
2022-08-04T10:08:15.221Z,5.22
2022-08-04T10:10:53.595Z,2.30
2022-08-04T10:13:28.510Z,4.72
2022-08-04T10:16:17.186Z,2.72
2022-08-04T10:18:54.709Z,2.50
2022-08-04T10:21:31.623Z,2.60
2022-08-04T10:24:28.409Z,2.70
2022-08-04T10:27:02.721Z,2.40
2022-08-04T10:29:40.089Z,3.40
2022-08-04T10:32:12.812Z,2.88
2022-08-04T10:34:44.489Z,2.20
2022-08-04T10:37:21.182Z,7.07
2022-08-04T10:40:17.912Z,4.57
2022-08-04T10:43:00.174Z,4.53
2022-08-04T10:45:35.393Z,3.22
2022-08-04T10:48:10.763Z,2.58
2022-08-04T10:50:46.603Z,2.40
2022-08-04T10:53:19.401Z,2.20
2022-08-04T10:56:07.260Z,1.95
2022-08-04T10:58:47.698Z,3.30
2022-08-04T11:02:01.087Z,5.40
2022-08-04T11:04:26.761Z,2.30
2022-08-04T11:07:00.849Z,3.25
2022-08-04T11:09:30.207Z,2.38
2022-08-04T11:12:02.526Z,2.55
2022-08-04T11:14:36.551Z,2.83
2022-08-04T11:17:08.191Z,4.38
2022-08-04T11:19:45.079Z,3.95
2022-08-04T11:22:18.781Z,2.63
2022-08-04T11:24:52.011Z,2.50
2022-08-04T11:27:27.415Z,2.80
2022-08-04T11:30:05.134Z,2.50
2022-08-04T11:32:39.100Z,3.65
2022-08-04T11:35:16.381Z,3.45
2022-08-04T11:37:47.977Z,4.00
2022-08-04T11:40:22.746Z,2.80
2022-08-04T11:42:55.076Z,2.70
2022-08-04T11:45:32.421Z,2.55
2022-08-04T11:48:07.411Z,3.72
2022-08-04T11:50:42.253Z,2.22
2022-08-04T11:53:15.693Z,3.67
2022-08-04T11:56:07.749Z,6.18
2022-08-04T11:58:38.420Z,2.47
2022-08-04T12:01:21.721Z,4.25
2022-08-04T12:04:04.555Z,2.42
2022-08-04T12:07:04.694Z,5.13
2022-08-04T12:09:45.935Z,2.50
2022-08-04T12:12:21.495Z,3.50
2022-08-04T12:14:54.445Z,2.90
2022-08-04T12:17:33.644Z,2.78
2022-08-04T12:20:40.817Z,3.25
2022-08-04T12:23:11.408Z,2.35
2022-08-04T12:25:45.154Z,2.65
2022-08-04T12:28:18.759Z,5.05
2022-08-04T12:30:59.111Z,4.13
2022-08-04T12:33:41.364Z,4.70
2022-08-04T12:36:33.338Z,3.10
2022-08-04T12:39:06.550Z,5.53
2022-08-04T12:41:40.208Z,2.92
2022-08-04T12:44:33.382Z,2.47
2022-08-04T12:47:26.403Z,2.10
2022-08-04T12:50:00.130Z,2.85
2022-08-04T12:55:19.735Z,2.70
2022-08-04T12:57:48.546Z,6.15
2022-08-04T13:00:31.251Z,3.38
2022-08-04T13:03:09.849Z,4.05
2022-08-04T13:05:43.121Z,3.45
2022-08-04T13:08:16.472Z,2.30
2022-08-04T13:10:47.939Z,3.72
2022-08-04T13:13:18.912Z,3.30
2022-08-04T13:16:00.333Z,2.67
2022-08-04T13:21:23.116Z,3.47
2022-08-04T13:24:22.665Z,2.40
2022-08-04T13:27:03.571Z,2.38
2022-08-04T13:29:59.769Z,3.15
2022-08-04T13:30:24.088Z,3.40
2022-08-04T13:32:25.997Z,3.35
2022-08-04T13:34:55.868Z,3.78
2022-08-04T13:37:28.241Z,2.00
2022-08-04T13:39:57.143Z,2.15
2022-08-04T13:42:27.274Z,2.13
2022-08-04T13:44:57.959Z,3.35
2022-08-04T13:47:32.153Z,3.40
2022-08-04T13:50:19.641Z,2.17
2022-08-04T13:52:53.795Z,3.03
2022-08-04T13:55:24.994Z,4.25
2022-08-04T13:57:57.398Z,3.03
2022-08-04T14:00:30.090Z,3.28
2022-08-04T14:03:23.211Z,2.88
2022-08-04T14:06:14.432Z,3.10
2022-08-04T14:08:51.081Z,3.05
2022-08-04T14:12:09.445Z,3.25
2022-08-04T14:14:19.879Z,4.18
2022-08-04T14:17:01.671Z,5.93
2022-08-04T14:19:45.974Z,7.60
2022-08-04T14:22:29.531Z,6.63
2022-08-04T14:25:01.890Z,5.22
2022-08-04T14:27:30.540Z,4.82
2022-08-04T14:30:01.353Z,4.95
2022-08-04T14:32:29.527Z,6.78
2022-08-04T14:34:57.819Z,5.53
2022-08-04T14:37:25.956Z,6.95
2022-08-04T14:40:07.846Z,5.43
2022-08-04T14:42:54.901Z,8.15
2022-08-04T14:45:34.469Z,6.70
2022-08-04T14:48:03.714Z,7.10
2022-08-04T14:50:37.491Z,8.05
2022-08-04T14:53:08.530Z,6.75
2022-08-04T14:55:37.688Z,6.90
2022-08-04T14:58:36.578Z,9.38
2022-08-04T15:00:59.063Z,8.57
2022-08-04T15:03:28.235Z,5.85
2022-08-04T15:06:05.467Z,5.50
2022-08-04T15:08:36.502Z,7.95
2022-08-04T15:11:04.798Z,8.13
2022-08-04T15:13:35.061Z,4.35
2022-08-04T15:16:08.493Z,6.93
2022-08-04T15:18:44.179Z,9.23
2022-08-04T15:21:19.800Z,10.40
2022-08-04T15:23:47.991Z,7.18
2022-08-04T15:26:21.495Z,9.68
2022-08-04T15:28:53.783Z,7.78
2022-08-04T15:32:05.471Z,6.88
2022-08-04T15:34:14.911Z,5.60
2022-08-04T15:36:58.438Z,4.88
2022-08-04T15:39:35.995Z,6.28
2022-08-04T15:42:20.564Z,6.78
2022-08-04T15:45:22.438Z,8.32
2022-08-04T15:48:34.885Z,4.25
2022-08-04T15:51:14.464Z,4.30
2022-08-04T15:54:23.382Z,8.43
2022-08-04T15:57:01.357Z,4.28
2022-08-04T16:00:15.255Z,3.58
2022-08-04T16:02:45.163Z,4.65
2022-08-04T16:05:40.394Z,6.43
2022-08-04T16:08:16.032Z,3.20
2022-08-04T16:10:49.123Z,6.25
2022-08-04T16:13:19.889Z,2.75
2022-08-04T16:15:55.534Z,2.33
2022-08-04T16:18:41.038Z,2.72
2022-08-04T16:21:19.932Z,2.28
2022-08-04T16:24:11.255Z,2.75
2022-08-04T16:26:55.101Z,3.67
2022-08-04T16:29:39.030Z,5.70
2022-08-04T16:32:21.199Z,3.08
2022-08-04T16:34:56.487Z,6.13
2022-08-04T16:37:28.254Z,2.63
2022-08-04T16:40:37.435Z,4.15
2022-08-04T16:43:09.633Z,5.55
2022-08-04T16:45:42.520Z,5.13
2022-08-04T16:48:11.484Z,2.80
2022-08-04T16:51:04.837Z,4.20
2022-08-04T16:53:52.115Z,3.13
2022-08-04T16:56:30.356Z,5.68
2022-08-04T16:59:08.550Z,6.65
2022-08-04T17:01:36.766Z,3.25
2022-08-04T17:04:08.124Z,5.20
2022-08-04T17:06:43.210Z,3.28
2022-08-04T17:09:13.615Z,4.65
2022-08-04T17:11:42.462Z,4.72
2022-08-04T17:14:10.907Z,3.13
2022-08-04T17:16:41.077Z,6.95
2022-08-04T17:19:25.113Z,7.38
2022-08-04T17:22:02.187Z,3.65
2022-08-04T17:24:31.905Z,6.72
2022-08-04T17:27:00.163Z,4.70
2022-08-04T17:29:42.982Z,5.32
2022-08-04T17:32:15.955Z,4.13
2022-08-04T17:34:48.677Z,5.65
2022-08-04T17:37:39.102Z,3.40
2022-08-04T17:40:13.156Z,3.42
2022-08-04T17:42:45.018Z,3.50
2022-08-04T17:51:16.818Z,3.78
2022-08-04T17:54:02.656Z,1.98
2022-08-04T17:56:36.422Z,5.90
2022-08-04T17:59:48.255Z,2.75
2022-08-04T18:02:11.356Z,2.97
2022-08-04T18:05:05.916Z,1.92
2022-08-04T18:08:40.590Z,3.17
2022-08-04T18:10:39.714Z,5.60
2022-08-04T18:13:23.071Z,3.40
2022-08-04T18:15:52.025Z,3.20
2022-08-04T18:18:23.569Z,2.30
2022-08-04T18:20:51.977Z,2.03
2022-08-04T18:23:20.237Z,2.72
2022-08-04T18:26:03.510Z,4.53
2022-08-04T18:28:33.454Z,3.38
2022-08-04T18:31:02.438Z,3.13
2022-08-04T18:33:39.442Z,4.93
2022-08-04T18:36:32.464Z,5.45
2022-08-04T18:38:59.314Z,2.15
2022-08-04T18:42:01.298Z,4.32
2022-08-04T18:44:31.624Z,4.57
2022-08-04T18:47:19.631Z,3.22
2022-08-04T18:50:58.737Z,2.50
2022-08-04T18:52:36.441Z,2.83
2022-08-04T18:55:56.457Z,3.90
2022-08-04T18:58:07.059Z,2.92
2022-08-04T19:00:45.737Z,1.95
2022-08-04T19:03:16.500Z,9.05
2022-08-04T19:05:59.761Z,3.50
2022-08-04T19:08:35.022Z,3.05
2022-08-04T19:11:37.335Z,2.90
2022-08-04T19:13:58.629Z,4.10
2022-08-04T19:19:18.031Z,2.95
2022-08-04T19:22:01.155Z,3.30
2022-08-04T19:24:35.042Z,3.67
2022-08-04T19:27:07.516Z,4.15
2022-08-04T19:29:41.131Z,4.85
2022-08-04T19:32:14.448Z,3.00
2022-08-04T19:34:46.260Z,7.20
2022-08-04T19:37:57.780Z,5.60
2022-08-04T19:40:04.737Z,4.57
2022-08-04T19:42:33.031Z,4.38
2022-08-04T19:45:02.641Z,3.95
2022-08-04T19:50:18.815Z,6.18
2022-08-04T19:55:38.343Z,9.63
2022-08-04T19:58:10.142Z,5.47
2022-08-04T20:00:50.914Z,8.73
2022-08-04T20:06:08.063Z,8.50
2022-08-04T20:08:37.029Z,8.90
2022-08-04T20:11:08.191Z,8.55
2022-08-04T20:13:40.119Z,11.45
2022-08-04T20:16:28.329Z,7.68
2022-08-04T20:19:02.821Z,9.38
2022-08-04T20:21:53.478Z,7.95
2022-08-04T20:24:40.244Z,6.35
2022-08-04T20:27:11.805Z,6.80
2022-08-04T20:29:48.587Z,7.40
2022-08-04T20:32:20.132Z,8.20
2022-08-04T20:34:51.554Z,7.47
2022-08-04T20:40:11.076Z,7.35
2022-08-04T20:42:40.380Z,5.50
2022-08-04T20:45:16.514Z,6.40
2022-08-04T20:47:54.044Z,7.60
2022-08-04T20:50:30.066Z,9.13
2022-08-04T20:52:58.773Z,5.30
2022-08-04T20:55:29.498Z,9.50
2022-08-04T20:58:03.107Z,9.50
2022-08-04T21:00:32.152Z,4.43
2022-08-04T21:03:01.698Z,8.25
2022-08-04T21:05:31.542Z,10.88
2022-08-04T21:08:00.089Z,13.23
2022-08-04T21:10:28.463Z,8.45
2022-08-04T21:12:56.587Z,9.45
2022-08-04T21:15:50.713Z,12.85
2022-08-04T21:18:16.866Z,11.18
2022-08-04T21:20:45.432Z,10.88
2022-08-04T21:23:16.513Z,9.88
2022-08-04T21:25:45.689Z,9.45
2022-08-04T21:28:20.031Z,2.80
2022-08-04T21:30:54.592Z,5.35
2022-08-04T21:33:49.896Z,7.95
2022-08-04T21:36:16.140Z,9.73
2022-08-04T21:38:51.134Z,12.75
2022-08-04T21:41:25.110Z,11.55
2022-08-04T21:43:55.870Z,7.13
2022-08-04T21:46:24.054Z,9.15
2022-08-04T21:48:53.486Z,7.72
2022-08-04T21:51:57.824Z,14.57
2022-08-04T21:54:15.128Z,10.68
2022-08-04T21:56:51.385Z,6.63
2022-08-04T21:59:23.567Z,4.32
2022-08-04T22:01:56.670Z,12.15
2022-08-04T22:04:26.117Z,10.27
2022-08-04T22:06:54.159Z,7.68
2022-08-04T22:09:22.440Z,3.83
2022-08-04T22:11:52.114Z,7.70
2022-08-04T22:14:27.264Z,8.25
2022-08-04T22:16:57.760Z,8.25
2022-08-04T22:19:50.180Z,5.60
2022-08-04T22:22:25.425Z,11.18
2022-08-04T22:24:58.339Z,8.45
2022-08-04T22:27:44.025Z,12.35
2022-08-04T22:30:17.610Z,7.68
2022-08-04T22:32:47.006Z,9.95
2022-08-04T22:35:36.395Z,16.23
2022-08-04T22:38:25.387Z,8.85
2022-08-04T22:40:58.136Z,13.82
2022-08-04T22:43:32.091Z,6.88
2022-08-04T22:46:03.904Z,9.88
2022-08-04T22:48:33.784Z,6.50
2022-08-04T22:51:03.576Z,5.63
2022-08-04T22:53:31.624Z,8.75
2022-08-04T22:56:10.225Z,11.95
2022-08-04T22:58:45.922Z,4.97
2022-08-04T23:01:19.745Z,6.57
2022-08-04T23:03:55.876Z,9.13
2022-08-04T23:06:28.531Z,8.47
2022-08-04T23:08:57.016Z,11.93
2022-08-04T23:11:35.297Z,7.03
2022-08-04T23:14:05.782Z,5.15
2022-08-04T23:16:40.630Z,10.55
2022-08-04T23:19:15.178Z,6.22
2022-08-04T23:21:47.325Z,6.50
2022-08-04T23:24:16.037Z,5.23
2022-08-04T23:26:44.125Z,8.00
2022-08-04T23:29:12.611Z,6.13
2022-08-04T23:31:59.138Z,7.40
2022-08-04T23:34:29.124Z,5.13
2022-08-04T23:37:00.395Z,3.80
2022-08-04T23:40:03.460Z,2.65
2022-08-04T23:42:21.209Z,3.43
2022-08-04T23:44:49.677Z,3.33
2022-08-04T23:48:14.491Z,4.97
2022-08-04T23:50:06.298Z,3.50
2022-08-04T23:52:35.697Z,5.85
2022-08-04T23:55:03.715Z,5.32
2022-08-04T23:58:16.851Z,8.27
